Time;durP1;ratioP1;P1;durP2;ratioP2;P2;SDS_P1;SDS_P2;PMS_P1;PMS_P2;Temp;Humidity;BMP_temperature;BMP_pressure;BME280_temperature;BME280_humidity;BME280_pressure;Samples;Min_cycle;Max_cycle;Signal;HPM_P1;HPM_P2
2022/04/10 00:00:43;;;;;;;0.10;0.10;;;4.50;99.90;;;;;;5008585;28;20025;-71
2022/04/10 00:03:09;;;;;;;0.10;0.10;;;4.60;99.90;;;;;;5008326;28;20042;-71
2022/04/10 00:05:35;;;;;;;0.10;0.10;;;4.60;99.90;;;;;;5008394;28;20432;-70
2022/04/10 00:08:01;;;;;;;0.10;0.10;;;4.60;99.90;;;;;;5010592;28;20034;-70
2022/04/10 00:10:26;;;;;;;0.10;0.10;;;4.50;99.90;;;;;;4998595;28;20025;-70
2022/04/10 00:12:52;;;;;;;0.28;0.28;;;4.50;99.90;;;;;;5000949;28;20127;-70
2022/04/10 00:15:18;;;;;;;0.10;0.10;;;4.50;99.90;;;;;;5011389;28;20030;-70
2022/04/10 00:17:44;;;;;;;0.50;0.50;;;4.50;99.90;;;;;;5011344;28;20022;-70
2022/04/10 00:20:11;;;;;;;0.10;0.10;;;4.50;99.90;;;;;;5010240;28;20034;-70
2022/04/10 00:22:45;;;;;;;0.10;0.10;;;4.50;99.90;;;;;;5010873;28;20022;-70
2022/04/10 00:25:13;;;;;;;0.40;0.40;;;4.50;99.90;;;;;;4989967;28;20375;-70
2022/04/10 00:27:40;;;;;;;0.10;0.10;;;4.50;99.90;;;;;;5010375;28;20415;-70
2022/04/10 00:30:07;;;;;;;0.10;0.10;;;4.50;99.90;;;;;;5010723;28;20108;-69
2022/04/10 00:32:33;;;;;;;0.10;0.10;;;4.60;99.90;;;;;;5010884;28;20022;-69
2022/04/10 00:34:59;;;;;;;0.10;0.10;;;4.60;99.90;;;;;;5010452;28;20036;-69
2022/04/10 00:37:25;;;;;;;0.10;0.10;;;4.70;99.90;;;;;;5010784;28;20018;-70
2022/04/10 00:39:51;;;;;;;0.10;0.10;;;4.80;99.90;;;;;;5010568;28;20061;-70
2022/04/10 00:42:17;;;;;;;0.10;0.10;;;4.80;99.90;;;;;;5010898;28;20069;-70
2022/04/10 00:44:42;;;;;;;0.10;0.10;;;4.80;99.90;;;;;;4989920;28;20722;-70
2022/04/10 00:47:10;;;;;;;0.10;0.10;;;4.80;99.90;;;;;;5005810;28;20025;-70
2022/04/10 00:49:38;;;;;;;0.10;0.10;;;4.80;99.90;;;;;;5010677;28;20026;-71
2022/04/10 00:52:07;;;;;;;0.10;0.10;;;4.80;99.90;;;;;;5021090;23;20054;-65
2022/04/10 00:54:34;;;;;;;0.10;0.10;;;4.80;99.90;;;;;;5007692;28;20025;-62
2022/04/10 00:57:01;;;;;;;0.10;0.10;;;5.00;99.90;;;;;;5021335;28;20036;-62
2022/04/10 00:59:28;;;;;;;0.10;0.10;;;4.80;99.90;;;;;;5011482;28;20034;-63
2022/04/10 01:01:53;;;;;;;0.10;0.10;;;4.80;99.90;;;;;;5014665;28;20443;-62
2022/04/10 01:04:19;;;;;;;0.10;0.10;;;4.80;99.90;;;;;;5010637;28;20125;-62
2022/04/10 01:06:49;;;;;;;0.10;0.10;;;4.80;99.90;;;;;;5010440;28;20030;-62
2022/04/10 01:09:15;;;;;;;0.10;0.10;;;4.80;99.90;;;;;;5009776;28;20020;-62
2022/04/10 01:11:41;;;;;;;0.10;0.10;;;4.80;99.90;;;;;;5010490;28;20753;-63
2022/04/10 01:14:08;;;;;;;0.10;0.10;;;4.80;99.90;;;;;;5010355;28;20446;-63
2022/04/10 01:16:35;;;;;;;0.10;0.10;;;4.80;99.90;;;;;;5010512;28;20108;-63
2022/04/10 01:19:04;;;;;;;0.10;0.10;;;4.80;99.90;;;;;;5010190;28;20040;-64
2022/04/10 01:21:38;;;;;;;0.10;0.10;;;4.80;99.90;;;;;;5010295;28;20049;-62
2022/04/10 01:24:04;;;;;;;0.15;0.15;;;4.80;99.90;;;;;;5010406;28;20029;-63
2022/04/10 01:26:30;;;;;;;0.10;0.10;;;4.70;99.90;;;;;;5010046;28;20029;-63
2022/04/10 01:29:03;;;;;;;0.10;0.10;;;4.70;99.90;;;;;;5010608;28;20022;-65
2022/04/10 01:31:31;;;;;;;0.10;0.10;;;4.70;99.90;;;;;;5010103;28;20045;-63
2022/04/10 01:34:00;;;;;;;0.10;0.10;;;4.70;99.90;;;;;;5009710;28;20034;-64
2022/04/10 01:36:28;;;;;;;0.10;0.10;;;4.80;99.90;;;;;;5010494;28;20026;-63
2022/04/10 01:38:55;;;;;;;0.10;0.10;;;4.80;99.90;;;;;;5009990;28;20473;-63
2022/04/10 01:41:22;;;;;;;0.10;0.10;;;4.90;99.90;;;;;;4991427;28;20021;-63
2022/04/10 01:43:49;;;;;;;0.10;0.10;;;4.90;99.90;;;;;;5010142;28;20050;-63
2022/04/10 01:46:16;;;;;;;0.10;0.10;;;4.90;99.90;;;;;;5010336;28;20033;-65
2022/04/10 01:48:42;;;;;;;0.20;0.20;;;4.90;99.90;;;;;;5010173;28;20026;-64
2022/04/10 01:51:08;;;;;;;0.10;0.10;;;4.90;99.90;;;;;;5009485;28;20030;-62
2022/04/10 01:53:34;;;;;;;0.10;0.10;;;4.90;99.90;;;;;;5010161;28;20029;-63
2022/04/10 01:56:01;;;;;;;0.10;0.10;;;4.90;99.90;;;;;;4992512;28;20026;-62
2022/04/10 01:58:26;;;;;;;0.10;0.10;;;4.90;99.90;;;;;;4989820;28;20037;-63
2022/04/10 02:00:52;;;;;;;0.10;0.10;;;4.90;99.90;;;;;;5008028;28;20042;-64
2022/04/10 02:03:18;;;;;;;0.10;0.10;;;4.90;99.90;;;;;;5009779;28;20037;-63
2022/04/10 02:05:44;;;;;;;0.10;0.10;;;4.90;99.90;;;;;;5009593;28;20040;-63
2022/04/10 02:08:10;;;;;;;0.10;0.10;;;4.80;99.90;;;;;;5010122;28;20151;-64
2022/04/10 02:10:36;;;;;;;0.10;0.10;;;4.80;99.90;;;;;;5008673;28;20022;-64
2022/04/10 02:13:02;;;;;;;0.10;0.10;;;4.80;99.90;;;;;;5009958;28;20477;-64
2022/04/10 02:15:27;;;;;;;0.17;0.17;;;4.80;99.90;;;;;;5010075;28;20109;-61
2022/04/10 02:17:53;;;;;;;0.10;0.10;;;4.80;99.90;;;;;;5009490;28;20058;-63
2022/04/10 02:20:18;;;;;;;0.10;0.10;;;4.70;99.90;;;;;;5009502;28;20493;-62
2022/04/10 02:22:44;;;;;;;0.10;0.10;;;4.70;99.90;;;;;;5009927;28;20022;-64
2022/04/10 02:25:10;;;;;;;0.10;0.10;;;4.80;99.90;;;;;;5009768;28;20386;-63
2022/04/10 02:27:35;;;;;;;0.10;0.10;;;4.70;99.90;;;;;;5009283;28;20477;-63
2022/04/10 02:30:01;;;;;;;0.10;0.10;;;4.60;99.90;;;;;;5009638;28;20046;-63
2022/04/10 02:32:29;;;;;;;0.20;0.20;;;4.60;99.90;;;;;;5009749;28;20026;-63
2022/04/10 02:34:54;;;;;;;0.10;0.10;;;4.60;99.90;;;;;;4990810;28;20022;-63
2022/04/10 02:37:20;;;;;;;0.10;0.10;;;4.60;99.90;;;;;;4992067;28;20034;-64
2022/04/10 02:39:46;;;;;;;0.10;0.10;;;4.60;99.90;;;;;;5009489;28;20041;-62
2022/04/10 02:42:11;;;;;;;0.10;0.10;;;4.60;99.90;;;;;;5008794;28;20026;-62
2022/04/10 02:44:38;;;;;;;0.10;0.10;;;4.50;99.90;;;;;;5009639;28;20116;-61
2022/04/10 02:47:04;;;;;;;0.20;0.20;;;4.50;99.90;;;;;;5009834;28;20053;-63
2022/04/10 02:49:29;;;;;;;0.10;0.10;;;4.50;99.90;;;;;;5010042;28;20037;-62
2022/04/10 02:51:55;;;;;;;1.75;1.65;;;4.50;99.90;;;;;;5012264;28;20029;-62
2022/04/10 02:54:21;;;;;;;0.10;0.10;;;4.40;99.90;;;;;;5013003;28;20033;-63
2022/04/10 02:56:46;;;;;;;0.10;0.10;;;4.40;99.90;;;;;;5012869;28;20477;-62
2022/04/10 02:59:12;;;;;;;0.10;0.10;;;4.40;99.90;;;;;;5012758;28;20100;-63
2022/04/10 03:01:37;;;;;;;0.10;0.10;;;4.40;99.90;;;;;;5012022;28;20428;-64
2022/04/10 03:04:03;;;;;;;0.25;0.25;;;4.40;99.90;;;;;;5012800;28;20484;-62
2022/04/10 03:06:29;;;;;;;1.45;1.45;;;4.40;99.90;;;;;;5012688;28;20022;-62
2022/04/10 03:08:54;;;;;;;0.10;0.10;;;4.40;99.90;;;;;;5012761;28;20481;-63
2022/04/10 03:11:20;;;;;;;0.10;0.10;;;4.40;99.90;;;;;;4990844;28;20437;-63
2022/04/10 03:13:46;;;;;;;0.10;0.10;;;4.30;99.90;;;;;;5009180;28;20028;-62
2022/04/10 03:16:11;;;;;;;0.10;0.10;;;4.30;99.90;;;;;;5012667;28;20041;-63
2022/04/10 03:18:37;;;;;;;0.10;0.10;;;4.30;99.90;;;;;;4994389;28;20025;-63
2022/04/10 03:21:06;;;;;;;0.10;0.10;;;4.30;99.90;;;;;;5012247;28;20393;-62
2022/04/10 03:23:31;;;;;;;0.10;0.10;;;4.30;99.90;;;;;;5012422;28;20029;-61
2022/04/10 03:25:57;;;;;;;0.10;0.10;;;4.20;99.90;;;;;;5012432;28;20022;-62
2022/04/10 03:28:23;;;;;;;0.10;0.10;;;4.20;99.90;;;;;;5011891;28;20026;-62
2022/04/10 03:30:48;;;;;;;0.10;0.10;;;4.20;99.90;;;;;;5012190;28;20037;-63
2022/04/10 03:33:14;;;;;;;0.10;0.10;;;4.20;99.90;;;;;;5012354;28;20074;-63
2022/04/10 03:35:40;;;;;;;0.10;0.10;;;4.10;99.90;;;;;;5012288;28;20422;-63
2022/04/10 03:38:05;;;;;;;0.40;0.40;;;4.10;99.90;;;;;;5011661;28;20029;-63
2022/04/10 03:40:31;;;;;;;0.10;0.10;;;4.10;99.90;;;;;;5011988;28;20795;-64
2022/04/10 03:42:56;;;;;;;0.10;0.10;;;4.00;99.90;;;;;;5012161;28;20030;-63
2022/04/10 03:45:22;;;;;;;0.10;0.10;;;4.00;99.90;;;;;;5011540;28;20088;-63
2022/04/10 03:47:48;;;;;;;0.10;0.10;;;4.00;99.90;;;;;;4992596;28;20034;-62
2022/04/10 03:50:14;;;;;;;0.40;0.40;;;4.00;99.90;;;;;;4992319;28;20106;-64
2022/04/10 03:52:40;;;;;;;0.30;0.30;;;4.00;99.90;;;;;;4992219;28;20030;-63
2022/04/10 03:55:06;;;;;;;0.10;0.10;;;4.00;99.90;;;;;;5005804;28;20026;-63
2022/04/10 03:57:31;;;;;;;0.10;0.10;;;4.00;99.90;;;;;;5011975;28;20100;-63
2022/04/10 03:59:57;;;;;;;0.20;0.20;;;4.00;99.90;;;;;;5011556;28;20033;-61
2022/04/10 04:02:23;;;;;;;0.10;0.10;;;4.00;99.90;;;;;;5011356;28;20104;-64
2022/04/10 04:04:53;;;;;;;0.10;0.10;;;4.00;99.90;;;;;;5010901;28;20049;-62
2022/04/10 04:07:18;;;;;;;0.20;0.20;;;3.90;99.90;;;;;;5011949;28;20030;-63
2022/04/10 04:09:44;;;;;;;0.10;0.10;;;3.90;99.90;;;;;;5011670;28;20026;-64
2022/04/10 04:12:10;;;;;;;0.10;0.10;;;3.80;99.90;;;;;;4992405;28;20030;-62
2022/04/10 04:14:38;;;;;;;0.10;0.10;;;3.80;99.90;;;;;;5011636;28;20112;-64
2022/04/10 04:17:04;;;;;;;0.10;0.10;;;3.80;99.90;;;;;;5011652;28;20048;-62
2022/04/10 04:19:30;;;;;;;0.10;0.10;;;3.90;99.90;;;;;;4993839;28;20105;-63
2022/04/10 04:21:55;;;;;;;0.10;0.10;;;3.90;99.90;;;;;;5010485;28;20041;-62
2022/04/10 04:24:21;;;;;;;0.10;0.10;;;4.00;99.90;;;;;;5011672;28;20029;-62
2022/04/10 04:26:46;;;;;;;0.10;0.10;;;4.00;99.90;;;;;;5011443;28;20385;-64
2022/04/10 04:29:12;;;;;;;0.10;0.10;;;4.10;99.90;;;;;;5011280;28;20022;-64
2022/04/10 04:31:38;;;;;;;0.10;0.10;;;4.10;99.90;;;;;;5010338;28;20054;-62
2022/04/10 04:34:03;;;;;;;0.10;0.10;;;4.20;99.90;;;;;;5011211;28;20551;-62
2022/04/10 04:36:30;;;;;;;0.10;0.10;;;4.20;99.90;;;;;;4993493;28;20037;-64
2022/04/10 04:38:57;;;;;;;0.10;0.10;;;4.30;99.90;;;;;;5010901;28;20084;-63
2022/04/10 04:41:22;;;;;;;0.20;0.20;;;4.30;99.90;;;;;;5010787;28;20477;-62
2022/04/10 04:43:49;;;;;;;0.10;0.10;;;4.40;99.90;;;;;;5010974;28;20084;-63
2022/04/10 04:46:15;;;;;;;0.10;0.10;;;4.40;99.90;;;;;;5010493;28;20104;-63
2022/04/10 04:48:40;;;;;;;0.10;0.10;;;4.50;99.90;;;;;;5011111;28;20068;-63
2022/04/10 04:51:06;;;;;;;0.10;0.10;;;4.50;99.90;;;;;;5010293;28;20030;-64
2022/04/10 04:53:32;;;;;;;0.10;0.10;;;4.50;99.90;;;;;;5010178;28;20846;-63
2022/04/10 04:55:57;;;;;;;0.10;0.10;;;4.50;99.90;;;;;;4993066;28;20030;-62
2022/04/10 04:58:23;;;;;;;0.10;0.10;;;4.50;99.90;;;;;;5003473;28;20030;-63
2022/04/10 05:00:48;;;;;;;0.68;0.68;;;4.60;99.90;;;;;;5029960;28;20108;-63
2022/04/10 05:03:17;;;;;;;0.10;0.10;;;4.60;99.90;;;;;;5010907;28;20030;-65
2022/04/10 05:05:43;;;;;;;0.10;0.10;;;4.60;99.90;;;;;;5010148;28;20049;-64
2022/04/10 05:08:08;;;;;;;0.10;0.10;;;4.60;99.90;;;;;;5010778;28;20393;-63
2022/04/10 05:10:34;;;;;;;0.10;0.10;;;4.30;99.90;;;;;;5009832;28;20025;-65
2022/04/10 05:12:59;;;;;;;0.10;0.10;;;4.60;99.90;;;;;;5009767;28;20041;-63
2022/04/10 05:15:25;;;;;;;0.10;0.10;;;4.60;99.90;;;;;;5010447;28;20452;-63
2022/04/10 05:17:51;;;;;;;0.10;0.10;;;4.70;99.90;;;;;;5009928;28;20030;-64
2022/04/10 05:20:17;;;;;;;0.10;0.10;;;4.70;99.90;;;;;;5009970;28;20076;-63
2022/04/10 05:22:43;;;;;;;0.10;0.10;;;4.70;99.90;;;;;;5010352;28;20026;-62
2022/04/10 05:25:08;;;;;;;0.20;0.20;;;4.80;99.90;;;;;;5009720;28;20113;-64
2022/04/10 05:27:34;;;;;;;0.17;0.17;;;4.80;99.90;;;;;;5010459;28;20026;-63
2022/04/10 05:30:00;;;;;;;0.10;0.10;;;4.80;99.90;;;;;;5009826;28;20092;-64
2022/04/10 05:32:26;;;;;;;0.10;0.10;;;4.90;99.90;;;;;;5010183;28;20025;-63
2022/04/10 05:34:51;;;;;;;0.10;0.10;;;4.90;99.90;;;;;;5009642;28;20055;-63
2022/04/10 05:37:17;;;;;;;0.10;0.10;;;5.00;99.90;;;;;;5010210;28;20026;-64
2022/04/10 05:39:43;;;;;;;0.10;0.10;;;4.90;99.90;;;;;;5010135;28;20484;-64
2022/04/10 05:42:08;;;;;;;0.10;0.10;;;4.90;99.90;;;;;;5010040;28;20080;-64
2022/04/10 05:44:34;;;;;;;0.10;0.10;;;5.00;99.90;;;;;;5009556;28;20567;-63
2022/04/10 05:47:00;;;;;;;0.10;0.10;;;5.00;99.90;;;;;;5009887;28;20025;-63
2022/04/10 05:49:26;;;;;;;0.10;0.10;;;5.00;99.90;;;;;;5009677;28;20010;-64
2022/04/10 05:51:52;;;;;;;0.10;0.10;;;5.60;99.90;;;;;;5009219;28;20584;-64
2022/04/10 05:54:18;;;;;;;0.10;0.10;;;5.00;99.90;;;;;;4992371;28;20080;-63
2022/04/10 05:56:43;;;;;;;0.10;0.10;;;5.00;99.90;;;;;;5010059;28;20018;-65
2022/04/10 05:59:09;;;;;;;0.10;0.10;;;5.00;99.90;;;;;;5009364;28;20052;-63
2022/04/10 06:01:34;;;;;;;0.10;0.10;;;4.90;99.90;;;;;;5009615;28;20041;-63
2022/04/10 06:04:00;;;;;;;0.10;0.10;;;5.00;99.90;;;;;;5009745;28;20515;-62
2022/04/10 06:06:26;;;;;;;0.10;0.10;;;5.00;99.90;;;;;;5009821;28;20030;-63
2022/04/10 06:08:51;;;;;;;0.20;0.20;;;5.10;99.90;;;;;;5009604;28;20029;-62
2022/04/10 06:11:17;;;;;;;0.10;0.10;;;5.20;99.90;;;;;;5009920;28;20018;-62
2022/04/10 06:13:43;;;;;;;0.10;0.10;;;5.20;99.90;;;;;;5009628;28;20033;-63
2022/04/10 06:16:08;;;;;;;0.10;0.10;;;5.40;99.90;;;;;;5009807;28;20026;-63
2022/04/10 06:18:34;;;;;;;0.10;0.10;;;5.40;99.90;;;;;;5009479;28;20053;-63
2022/04/10 06:21:00;;;;;;;0.10;0.10;;;5.50;99.90;;;;;;5009793;28;20029;-62
2022/04/10 06:23:26;;;;;;;0.10;0.10;;;5.60;99.90;;;;;;5010196;28;20591;-63
2022/04/10 06:25:52;;;;;;;0.10;0.10;;;5.70;99.90;;;;;;5013674;28;20101;-62
2022/04/10 06:28:17;;;;;;;0.10;0.10;;;5.80;99.90;;;;;;5013056;28;20103;-62
2022/04/10 06:30:45;;;;;;;0.13;0.13;;;5.90;99.90;;;;;;5013149;28;20078;-63
2022/04/10 06:33:12;;;;;;;0.10;0.10;;;6.00;99.90;;;;;;4995862;28;20026;-62
2022/04/10 06:35:39;;;;;;;0.28;0.28;;;6.10;99.90;;;;;;5012835;28;20556;-64
2022/04/10 06:38:05;;;;;;;0.10;0.10;;;6.20;99.90;;;;;;5013533;28;20034;-63
2022/04/10 06:40:30;;;;;;;0.10;0.10;;;6.20;99.90;;;;;;5012911;28;20030;-64
2022/04/10 06:42:56;;;;;;;0.10;0.10;;;6.30;99.90;;;;;;5012832;28;20033;-63
2022/04/10 06:45:22;;;;;;;0.10;0.10;;;6.40;99.90;;;;;;5012602;28;20488;-63
2022/04/10 06:47:47;;;;;;;0.10;0.10;;;6.40;99.90;;;;;;5012960;28;20098;-63
2022/04/10 06:50:13;;;;;;;0.10;0.10;;;6.50;99.90;;;;;;5013081;28;20021;-62
2022/04/10 06:52:39;;;;;;;0.10;0.10;;;6.60;99.90;;;;;;5027463;22;20053;-65
2022/04/10 06:55:05;;;;;;;0.10;0.10;;;6.70;99.90;;;;;;5011772;28;20478;-64
2022/04/10 06:57:31;;;;;;;0.10;0.10;;;6.80;99.90;;;;;;5008831;28;20033;-66
2022/04/10 06:59:56;;;;;;;0.10;0.10;;;6.70;99.90;;;;;;4992856;28;20022;-66
2022/04/10 07:02:22;;;;;;;0.10;0.10;;;6.70;99.90;;;;;;4993805;28;20037;-65
2022/04/10 07:04:47;;;;;;;0.20;0.20;;;6.90;99.90;;;;;;4992091;28;20038;-66
2022/04/10 07:07:13;;;;;;;0.10;0.10;;;7.00;99.90;;;;;;4992811;28;20587;-65
2022/04/10 07:09:38;;;;;;;0.10;0.10;;;7.00;99.90;;;;;;4992647;28;20038;-65
2022/04/10 07:12:04;;;;;;;0.10;0.10;;;7.00;99.90;;;;;;4992577;28;20026;-66
2022/04/10 07:14:30;;;;;;;0.10;0.10;;;7.00;99.90;;;;;;4992693;28;20062;-66
2022/04/10 07:16:55;;;;;;;0.10;0.10;;;7.10;99.90;;;;;;4992756;28;20026;-65
2022/04/10 07:19:21;;;;;;;0.10;0.10;;;7.10;99.90;;;;;;4992190;28;20349;-66
2022/04/10 07:24:31;;;;;;;0.10;0.10;;;7.30;99.90;;;;;;4992699;28;20177;-65
2022/04/10 07:26:56;;;;;;;0.10;0.10;;;7.30;99.90;;;;;;4993005;28;20419;-65
2022/04/10 07:29:22;;;;;;;0.10;0.10;;;7.30;99.90;;;;;;4992166;28;20125;-68
2022/04/10 07:31:48;;;;;;;0.10;0.10;;;7.40;99.90;;;;;;4994377;28;20026;-67
2022/04/10 07:34:14;;;;;;;0.10;0.10;;;7.40;99.90;;;;;;5012117;28;20096;-66
2022/04/10 07:36:39;;;;;;;0.20;0.20;;;7.50;99.90;;;;;;5011660;28;20030;-67
2022/04/10 07:39:05;;;;;;;0.10;0.10;;;7.40;99.90;;;;;;5011398;28;20026;-66
2022/04/10 07:41:30;;;;;;;0.10;0.10;;;7.50;99.90;;;;;;5011756;28;20037;-66
2022/04/10 07:43:56;;;;;;;0.10;0.10;;;7.60;99.90;;;;;;5011854;28;20053;-67
2022/04/10 07:49:06;;;;;;;0.10;0.10;;;7.50;99.90;;;;;;5007774;28;20085;-68
2022/04/10 07:51:33;;;;;;;0.10;0.10;;;7.70;99.90;;;;;;5004392;28;20018;-66
2022/04/10 07:53:58;;;;;;;0.10;0.10;;;7.70;99.90;;;;;;5000940;28;20540;-68
2022/04/10 07:56:24;;;;;;;0.10;0.10;;;7.80;99.90;;;;;;5011198;28;20042;-67
2022/04/10 07:58:50;;;;;;;0.10;0.10;;;7.80;99.90;;;;;;4997097;28;20489;-69
2022/04/10 08:01:15;;;;;;;0.10;0.10;;;7.60;99.90;;;;;;5007843;28;20025;-70
2022/04/10 08:03:41;;;;;;;0.10;0.10;;;7.40;99.90;;;;;;4997211;28;20528;-67
2022/04/10 08:06:07;;;;;;;0.10;0.10;;;7.50;99.90;;;;;;5011103;28;20030;-68
2022/04/10 08:08:32;;;;;;;0.10;0.10;;;7.40;99.90;;;;;;4998913;28;20026;-69
2022/04/10 08:10:58;;;;;;;0.10;0.10;;;7.40;99.90;;;;;;5007340;28;20045;-65
2022/04/10 08:13:24;;;;;;;0.10;0.10;;;7.70;99.90;;;;;;5002878;28;20030;-66
2022/04/10 08:15:49;;;;;;;0.43;0.43;;;8.00;99.90;;;;;;5001352;28;20104;-68
2022/04/10 08:18:15;;;;;;;0.10;0.10;;;8.20;99.90;;;;;;5002275;28;20036;-65
2022/04/10 08:20:41;;;;;;;0.05;0.05;;;8.60;99.90;;;;;;4978471;28;20140;-66
2022/04/10 08:23:08;;;;;;;0.40;0.40;;;8.80;99.90;;;;;;5002253;28;20033;-66
2022/04/10 08:25:34;;;;;;;0.10;0.10;;;9.00;99.90;;;;;;5006971;28;20050;-66
2022/04/10 08:28:00;;;;;;;0.10;0.10;;;8.70;99.90;;;;;;4997780;28;20508;-66
2022/04/10 08:30:26;;;;;;;0.10;0.10;;;8.70;99.90;;;;;;5007421;28;20117;-66
2022/04/10 08:32:52;;;;;;;0.10;0.10;;;8.60;99.90;;;;;;5006675;28;20033;-66
2022/04/10 08:35:18;;;;;;;0.40;0.40;;;8.60;99.90;;;;;;5000789;28;20535;-66
2022/04/10 08:37:45;;;;;;;0.15;0.15;;;8.60;99.90;;;;;;5007187;28;20026;-66
2022/04/10 08:40:11;;;;;;;0.10;0.10;;;8.70;99.90;;;;;;5009842;28;20030;-66
2022/04/10 08:42:37;;;;;;;0.10;0.10;;;8.60;99.90;;;;;;5008242;28;20029;-66
2022/04/10 08:45:05;;;;;;;0.10;0.10;;;8.70;99.90;;;;;;4996508;28;20026;-66
2022/04/10 08:47:32;;;;;;;0.10;0.10;;;8.90;99.90;;;;;;5008680;28;20123;-65
2022/04/10 08:50:00;;;;;;;0.10;0.10;;;9.00;99.90;;;;;;5009243;28;20026;-66
2022/04/10 08:52:27;;;;;;;0.10;0.10;;;9.00;99.90;;;;;;5010304;28;20030;-65
2022/04/10 08:54:52;;;;;;;0.10;0.10;;;9.00;99.90;;;;;;5010387;28;20061;-65
2022/04/10 08:57:18;;;;;;;0.10;0.10;;;9.00;99.90;;;;;;5009759;28;20061;-66
2022/04/10 08:59:44;;;;;;;0.10;0.10;;;9.00;99.90;;;;;;5010122;28;20041;-66
2022/04/10 09:02:11;;;;;;;0.10;0.10;;;9.10;99.90;;;;;;5010471;28;20037;-65
2022/04/10 09:04:40;;;;;;;0.10;0.10;;;9.20;99.90;;;;;;5010247;28;20113;-66
2022/04/10 09:07:10;;;;;;;0.10;0.10;;;9.30;99.90;;;;;;5010402;28;20028;-68
2022/04/10 09:09:41;;;;;;;0.05;0.05;;;9.30;99.90;;;;;;5009872;28;20038;-65
2022/04/10 09:12:08;;;;;;;0.10;0.10;;;9.50;99.90;;;;;;5010256;28;20376;-66
2022/04/10 09:14:34;;;;;;;0.10;0.10;;;9.30;99.90;;;;;;5010459;28;20105;-65
2022/04/10 09:17:22;;;;;;;0.10;0.10;;;9.40;99.90;;;;;;5009998;28;20060;-65
2022/04/10 09:19:50;;;;;;;0.10;0.10;;;9.30;99.90;;;;;;5010019;28;20037;-66
2022/04/10 09:22:25;;;;;;;0.10;0.10;;;9.30;99.90;;;;;;5009777;28;20500;-65
2022/04/10 09:25:11;;;;;;;0.10;0.10;;;9.10;99.90;;;;;;5009508;28;20030;-65
2022/04/10 09:27:41;;;;;;;0.10;0.10;;;9.10;99.90;;;;;;5010392;28;20041;-66
2022/04/10 09:30:10;;;;;;;0.10;0.10;;;9.00;99.90;;;;;;5010097;28;20095;-66
2022/04/10 09:32:53;;;;;;;0.10;0.10;;;9.00;99.90;;;;;;5009948;28;20033;-66
2022/04/10 09:35:20;;;;;;;0.40;0.40;;;9.00;99.90;;;;;;5009731;28;20037;-65
2022/04/10 09:37:51;;;;;;;0.10;0.10;;;8.90;99.90;;;;;;5010132;28;20025;-65
2022/04/10 09:40:30;;;;;;;0.10;0.10;;;8.90;99.90;;;;;;5009937;28;20075;-65
2022/04/10 09:42:58;;;;;;;0.10;0.10;;;8.90;99.90;;;;;;5009500;28;20065;-66
2022/04/10 09:45:30;;;;;;;0.10;0.10;;;8.80;99.90;;;;;;5009902;28;20454;-66
2022/04/10 09:47:56;;;;;;;0.10;0.10;;;8.80;99.90;;;;;;5010049;28;20069;-66
2022/04/10 09:50:32;;;;;;;0.10;0.10;;;9.00;99.90;;;;;;5009502;28;20018;-65
2022/04/10 09:53:05;;;;;;;0.10;0.10;;;9.30;99.90;;;;;;4990092;28;20053;-66
2022/04/10 09:55:41;;;;;;;0.10;0.10;;;9.80;99.90;;;;;;4990601;28;20031;-66
2022/04/10 09:58:10;;;;;;;0.10;0.10;;;10.00;97.40;;;;;;4990497;28;20041;-66
2022/04/10 10:00:38;;;;;;;0.10;0.10;;;10.10;93.70;;;;;;4999216;28;20030;-66
2022/04/10 10:03:05;;;;;;;0.10;0.10;;;9.90;93.70;;;;;;5013979;28;20030;-65
2022/04/10 10:05:32;;;;;;;0.10;0.10;;;10.10;90.90;;;;;;5013489;28;20025;-65
2022/04/10 10:07:59;;;;;;;2.17;2.08;;;10.00;90.10;;;;;;5013346;28;20018;-66
2022/04/10 10:10:30;;;;;;;0.10;0.10;;;9.50;91.70;;;;;;5012789;28;20026;-65
2022/04/10 10:12:57;;;;;;;0.10;0.10;;;9.40;90.90;;;;;;5010328;28;20026;-68
2022/04/10 10:15:23;;;;;;;0.10;0.10;;;9.40;90.70;;;;;;5013850;28;20517;-67
2022/04/10 10:17:50;;;;;;;0.10;0.10;;;9.40;91.50;;;;;;5013311;28;20041;-66
2022/04/10 10:20:18;;;;;;;0.10;0.10;;;9.50;92.00;;;;;;5013119;28;20466;-66
2022/04/10 10:22:44;;;;;;;0.10;0.10;;;9.70;91.80;;;;;;5013115;28;20552;-64
2022/04/10 10:25:15;;;;;;;0.10;0.10;;;9.80;91.80;;;;;;5013292;28;20033;-66
2022/04/10 10:27:48;;;;;;;0.10;0.10;;;10.10;90.30;;;;;;5010251;28;20093;-65
2022/04/10 10:30:22;;;;;;;0.10;0.10;;;9.90;88.90;;;;;;5012778;28;20018;-65
2022/04/10 10:32:52;;;;;;;0.10;0.10;;;9.40;91.90;;;;;;5013304;28;20093;-65
2022/04/10 10:35:31;;;;;;;0.10;0.10;;;9.00;95.60;;;;;;5012772;28;20032;-65
2022/04/10 10:37:57;;;;;;;0.10;0.10;;;8.80;99.70;;;;;;5013343;28;20022;-67
2022/04/10 10:40:23;;;;;;;0.10;0.10;;;8.80;99.90;;;;;;5013320;28;20594;-66
2022/04/10 10:42:50;;;;;;;0.10;0.10;;;8.90;99.90;;;;;;5013504;28;20040;-66
2022/04/10 10:45:35;;;;;;;0.10;0.10;;;8.80;99.90;;;;;;5012528;28;20076;-65
2022/04/10 10:48:32;;;;;;;0.15;0.15;;;8.90;99.90;;;;;;5013028;28;20018;-65
2022/04/10 10:51:24;;;;;;;0.10;0.10;;;9.20;99.90;;;;;;5012726;28;20094;-67
2022/04/10 10:53:55;;;;;;;0.10;0.10;;;9.10;99.90;;;;;;4969352;28;20092;-66
2022/04/10 10:56:26;;;;;;;0.10;0.10;;;9.20;99.90;;;;;;4993490;28;20034;-68
2022/04/10 10:58:55;;;;;;;0.10;0.10;;;9.30;99.90;;;;;;4993497;28;20113;-65
2022/04/10 11:01:26;;;;;;;0.10;0.10;;;9.20;99.90;;;;;;4992990;28;20026;-67
2022/04/10 11:04:03;;;;;;;0.10;0.10;;;9.00;99.90;;;;;;5007861;28;20539;-66
2022/04/10 11:06:45;;;;;;;0.10;0.10;;;8.90;99.90;;;;;;5012332;28;20041;-65
2022/04/10 11:09:22;;;;;;;0.10;0.10;;;8.60;99.90;;;;;;5012329;28;20098;-66
2022/04/10 11:11:49;;;;;;;0.10;0.10;;;8.30;99.90;;;;;;5010362;28;20021;-66
2022/04/10 11:14:40;;;;;;;0.10;0.10;;;8.50;99.90;;;;;;5010346;28;20555;-65
2022/04/10 11:17:15;;;;;;;0.10;0.10;;;8.80;99.90;;;;;;5012647;28;20033;-66
2022/04/10 11:19:45;;;;;;;0.10;0.10;;;8.90;99.90;;;;;;5012301;28;20026;-67
2022/04/10 11:22:14;;;;;;;0.10;0.10;;;9.10;99.90;;;;;;5012515;28;20495;-66
2022/04/10 11:24:42;;;;;;;0.10;0.10;;;9.20;99.90;;;;;;5001002;28;20482;-66
2022/04/10 11:27:12;;;;;;;0.10;0.10;;;9.20;99.90;;;;;;5011823;28;20113;-66
2022/04/10 11:29:47;;;;;;;0.30;0.30;;;9.30;99.90;;;;;;5012232;28;20551;-66
2022/04/10 11:32:17;;;;;;;0.10;0.10;;;9.40;99.20;;;;;;5012048;28;20026;-66
2022/04/10 11:34:43;;;;;;;0.10;0.10;;;9.40;98.80;;;;;;5011468;28;20032;-67
2022/04/10 11:37:21;;;;;;;0.10;0.10;;;9.50;98.40;;;;;;5011894;28;20022;-65
2022/04/10 11:39:48;;;;;;;0.35;0.35;;;9.60;98.00;;;;;;5011704;28;20417;-66
2022/04/10 11:42:15;;;;;;;0.10;0.10;;;9.80;97.00;;;;;;5012184;28;20088;-67
2022/04/10 11:44:41;;;;;;;0.10;0.10;;;9.80;96.20;;;;;;5011622;28;20029;-65
2022/04/10 11:47:10;;;;;;;0.10;0.10;;;9.80;96.70;;;;;;5012118;28;20025;-66
2022/04/10 11:49:37;;;;;;;0.10;0.10;;;9.90;94.90;;;;;;5011803;28;20489;-67
2022/04/10 11:52:03;;;;;;;0.10;0.10;;;10.00;94.40;;;;;;5011172;28;20026;-67
2022/04/10 11:54:34;;;;;;;0.00;0.00;;;10.40;93.50;;;;;;5011379;28;20041;-65
2022/04/10 11:57:01;;;;;;;0.10;0.10;;;10.60;93.80;;;;;;4994428;28;20068;-67
2022/04/10 11:59:34;;;;;;;0.10;0.10;;;11.20;92.70;;;;;;5011740;28;20022;-67
2022/04/10 12:02:00;;;;;;;0.10;0.10;;;11.50;89.00;;;;;;5010850;28;20029;-68
2022/04/10 12:04:29;;;;;;;0.10;0.10;;;11.40;89.30;;;;;;5011079;28;20105;-66
2022/04/10 12:07:13;;;;;;;0.10;0.10;;;11.20;88.10;;;;;;5011790;28;20026;-67
2022/04/10 12:09:42;;;;;;;0.10;0.10;;;10.80;88.60;;;;;;5011488;28;20057;-67
2022/04/10 12:12:09;;;;;;;0.10;0.10;;;10.50;90.50;;;;;;5007517;28;20033;-66
2022/04/10 12:14:35;;;;;;;0.10;0.10;;;10.10;91.70;;;;;;5011600;28;20037;-67
2022/04/10 12:17:00;;;;;;;0.10;0.10;;;10.00;92.80;;;;;;5011547;28;20018;-67
2022/04/10 12:19:36;;;;;;;0.10;0.10;;;10.10;93.60;;;;;;5010593;28;20079;-67
2022/04/10 12:22:09;;;;;;;0.10;0.10;;;10.30;94.30;;;;;;5010230;28;20017;-67
2022/04/10 12:24:36;;;;;;;0.10;0.10;;;10.60;94.60;;;;;;5011027;28;20162;-66
2022/04/10 12:27:08;;;;;;;0.10;0.10;;;10.90;93.90;;;;;;5010539;28;20647;-65
2022/04/10 12:29:35;;;;;;;0.10;0.10;;;10.90;91.10;;;;;;5011064;28;20478;-66
2022/04/10 12:32:02;;;;;;;0.10;0.10;;;10.80;90.30;;;;;;4993092;28;20160;-65
2022/04/10 12:34:35;;;;;;;0.10;0.10;;;10.70;89.90;;;;;;5010905;28;20030;-67
2022/04/10 12:37:08;;;;;;;0.10;0.10;;;10.90;90.40;;;;;;5010518;28;20172;-65
2022/04/10 12:39:34;;;;;;;0.10;0.10;;;10.60;93.30;;;;;;5011080;28;20038;-66
2022/04/10 12:42:08;;;;;;;0.10;0.10;;;10.60;94.40;;;;;;5010423;28;20041;-67
2022/04/10 12:44:40;;;;;;;0.10;0.10;;;10.40;95.50;;;;;;5011730;28;20518;-67
2022/04/10 12:47:07;;;;;;;0.10;0.10;;;10.40;96.20;;;;;;5010563;28;20036;-66
2022/04/10 12:49:35;;;;;;;0.10;0.10;;;10.40;98.40;;;;;;5010788;28;20050;-66
2022/04/10 12:52:03;;;;;;;0.10;0.10;;;10.10;99.90;;;;;;5010165;28;20017;-67
2022/04/10 12:54:40;;;;;;;0.45;0.45;;;10.00;99.80;;;;;;5009910;28;20108;-66
2022/04/10 12:57:27;;;;;;;0.10;0.10;;;10.10;99.10;;;;;;5010565;28;20096;-69
2022/04/10 12:59:53;;;;;;;0.10;0.10;;;10.70;96.90;;;;;;5009614;28;20042;-67
2022/04/10 13:02:24;;;;;;;0.10;0.10;;;11.10;95.30;;;;;;5010519;28;20052;-67